Terminal Aerodrome Forecast
Issued by NWS

Home | Current Version | Previous Version | Text Only | Print | Product List | Glossary On
Versions: 1 2 3 4 5 6 7 8 9 10 11 12 13 14 15 16 17 18 19 20 21 22 23
486
FTUS46 KLOX 092351
TAFLGB
TAF
KLGB 092351Z 1000/1024 VRB03KT P6SM OVC016
     FM100400 VRB03KT P6SM SCT025 BKN040
     FM101000 VRB03KT 5SM -DZ BR BKN006 OVC015
     FM101600 VRB03KT P6SM SCT010 OVC025
     FM102100 25007KT P6SM OVC025=

USA.gov is the U.S. government's official web portal to all federal, state and local government web resources and services.